sensor_id;sensor_type;location;lat;lon;timestamp;temperature;humidity
4739;DHT22;2383;48.632;10.156;2023-04-01T00:00:39;6.60;98.60
4739;DHT22;2383;48.632;10.156;2023-04-01T00:04:41;6.80;98.50
4739;DHT22;2383;48.632;10.156;2023-04-01T00:08:43;7.20;98.20
4739;DHT22;2383;48.632;10.156;2023-04-01T00:12:46;7.20;98.30
4739;DHT22;2383;48.632;10.156;2023-04-01T00:16:48;7.50;98.00
4739;DHT22;2383;48.632;10.156;2023-04-01T00:20:51;7.40;97.90
4739;DHT22;2383;48.632;10.156;2023-04-01T00:24:53;7.70;97.60
4739;DHT22;2383;48.632;10.156;2023-04-01T00:28:55;7.90;97.40
4739;DHT22;2383;48.632;10.156;2023-04-01T00:32:57;7.90;97.00
4739;DHT22;2383;48.632;10.156;2023-04-01T00:36:59;7.90;97.20
4739;DHT22;2383;48.632;10.156;2023-04-01T00:41:02;7.90;97.20
4739;DHT22;2383;48.632;10.156;2023-04-01T00:49:35;6.80;98.60
4739;DHT22;2383;48.632;10.156;2023-04-01T00:53:41;7.00;98.80
4739;DHT22;2383;48.632;10.156;2023-04-01T00:57:44;6.90;98.80
4739;DHT22;2383;48.632;10.156;2023-04-01T01:01:47;6.70;98.70
4739;DHT22;2383;48.632;10.156;2023-04-01T01:10:23;6.00;99.90
4739;DHT22;2383;48.632;10.156;2023-04-01T01:18:50;6.00;99.90
4739;DHT22;2383;48.632;10.156;2023-04-01T01:27:22;6.70;99.20
4739;DHT22;2383;48.632;10.156;2023-04-01T01:35:54;6.80;98.40
4739;DHT22;2383;48.632;10.156;2023-04-01T01:40:00;6.10;99.30
4739;DHT22;2383;48.632;10.156;2023-04-01T01:44:07;6.00;99.80
4739;DHT22;2383;48.632;10.156;2023-04-01T01:48:10;6.20;99.40
4739;DHT22;2383;48.632;10.156;2023-04-01T01:52:13;6.20;99.70
4739;DHT22;2383;48.632;10.156;2023-04-01T01:56:18;6.60;99.30
4739;DHT22;2383;48.632;10.156;2023-04-01T02:00:23;6.70;99.20
4739;DHT22;2383;48.632;10.156;2023-04-01T02:04:26;6.70;99.30
4739;DHT22;2383;48.632;10.156;2023-04-01T02:09:08;6.60;99.40
4739;DHT22;2383;48.632;10.156;2023-04-01T02:17:39;6.60;99.70
4739;DHT22;2383;48.632;10.156;2023-04-01T02:21:43;6.40;99.60
4739;DHT22;2383;48.632;10.156;2023-04-01T02:25:46;6.70;99.60
4739;DHT22;2383;48.632;10.156;2023-04-01T02:29:50;6.60;99.50
4739;DHT22;2383;48.632;10.156;2023-04-01T02:33:52;6.90;99.00
4739;DHT22;2383;48.632;10.156;2023-04-01T02:37:55;6.50;99.40
4739;DHT22;2383;48.632;10.156;2023-04-01T02:41:57;6.60;99.70
4739;DHT22;2383;48.632;10.156;2023-04-01T02:45:59;6.40;99.70
4739;DHT22;2383;48.632;10.156;2023-04-01T02:50:02;6.20;99.90
4739;DHT22;2383;48.632;10.156;2023-04-01T02:54:04;6.40;99.70
4739;DHT22;2383;48.632;10.156;2023-04-01T02:58:06;6.70;99.10
4739;DHT22;2383;48.632;10.156;2023-04-01T03:02:08;6.40;99.30
4739;DHT22;2383;48.632;10.156;2023-04-01T03:06:12;6.40;99.90
4739;DHT22;2383;48.632;10.156;2023-04-01T03:10:15;6.10;99.90
4739;DHT22;2383;48.632;10.156;2023-04-01T03:14:17;6.50;99.90
4739;DHT22;2383;48.632;10.156;2023-04-01T03:18:19;6.60;99.50
4739;DHT22;2383;48.632;10.156;2023-04-01T03:22:21;6.40;99.90
4739;DHT22;2383;48.632;10.156;2023-04-01T03:26:23;6.70;99.70
4739;DHT22;2383;48.632;10.156;2023-04-01T03:30:25;6.60;99.70
4739;DHT22;2383;48.632;10.156;2023-04-01T03:34:28;6.60;99.90
4739;DHT22;2383;48.632;10.156;2023-04-01T03:38:30;6.30;99.90
4739;DHT22;2383;48.632;10.156;2023-04-01T03:42:32;6.40;99.90
4739;DHT22;2383;48.632;10.156;2023-04-01T03:46:34;6.50;99.90
4739;DHT22;2383;48.632;10.156;2023-04-01T03:50:36;6.30;99.90
4739;DHT22;2383;48.632;10.156;2023-04-01T03:54:38;5.90;99.90
4739;DHT22;2383;48.632;10.156;2023-04-01T03:58:41;6.00;99.90
4739;DHT22;2383;48.632;10.156;2023-04-01T04:02:44;5.90;99.90
4739;DHT22;2383;48.632;10.156;2023-04-01T04:06:50;6.10;99.90
4739;DHT22;2383;48.632;10.156;2023-04-01T04:10:55;6.20;99.80
4739;DHT22;2383;48.632;10.156;2023-04-01T04:14:57;6.20;99.90
4739;DHT22;2383;48.632;10.156;2023-04-01T04:18:59;6.60;99.30
4739;DHT22;2383;48.632;10.156;2023-04-01T04:23:01;6.50;99.40
4739;DHT22;2383;48.632;10.156;2023-04-01T04:27:04;6.60;99.00
4739;DHT22;2383;48.632;10.156;2023-04-01T04:31:06;6.30;98.70
4739;DHT22;2383;48.632;10.156;2023-04-01T04:35:10;5.80;99.20
4739;DHT22;2383;48.632;10.156;2023-04-01T04:39:12;5.50;98.90
4739;DHT22;2383;48.632;10.156;2023-04-01T04:43:17;5.40;99.40
4739;DHT22;2383;48.632;10.156;2023-04-01T04:47:18;5.90;98.40
4739;DHT22;2383;48.632;10.156;2023-04-01T04:51:22;5.60;99.10
4739;DHT22;2383;48.632;10.156;2023-04-01T04:55:24;5.90;98.50
4739;DHT22;2383;48.632;10.156;2023-04-01T04:59:45;6.30;98.00
4739;DHT22;2383;48.632;10.156;2023-04-01T05:03:57;6.00;97.90
4739;DHT22;2383;48.632;10.156;2023-04-01T05:08:00;5.60;97.80
4739;DHT22;2383;48.632;10.156;2023-04-01T05:12:02;5.40;98.10
4739;DHT22;2383;48.632;10.156;2023-04-01T05:16:20;5.20;98.20
4739;DHT22;2383;48.632;10.156;2023-04-01T05:20:22;5.30;98.50
4739;DHT22;2383;48.632;10.156;2023-04-01T05:24:24;5.60;97.80
4739;DHT22;2383;48.632;10.156;2023-04-01T05:28:26;5.30;98.20
4739;DHT22;2383;48.632;10.156;2023-04-01T05:32:30;5.40;98.20
4739;DHT22;2383;48.632;10.156;2023-04-01T05:36:32;5.50;98.30
4739;DHT22;2383;48.632;10.156;2023-04-01T05:40:34;5.70;98.20
4739;DHT22;2383;48.632;10.156;2023-04-01T05:44:36;5.70;98.60
4739;DHT22;2383;48.632;10.156;2023-04-01T05:48:41;6.10;98.30
4739;DHT22;2383;48.632;10.156;2023-04-01T05:52:43;6.60;97.60
4739;DHT22;2383;48.632;10.156;2023-04-01T05:56:46;6.30;98.10
4739;DHT22;2383;48.632;10.156;2023-04-01T06:00:49;6.30;98.20
4739;DHT22;2383;48.632;10.156;2023-04-01T06:05:19;5.80;98.30
4739;DHT22;2383;48.632;10.156;2023-04-01T06:09:26;6.30;98.90
4739;DHT22;2383;48.632;10.156;2023-04-01T06:22:40;6.90;98.80
4739;DHT22;2383;48.632;10.156;2023-04-01T06:27:16;7.20;98.30
4739;DHT22;2383;48.632;10.156;2023-04-01T06:49:55;6.80;98.50
4739;DHT22;2383;48.632;10.156;2023-04-01T06:54:24;6.50;98.50
4739;DHT22;2383;48.632;10.156;2023-04-01T06:58:52;6.20;98.70
4739;DHT22;2383;48.632;10.156;2023-04-01T07:03:35;6.00;98.10
4739;DHT22;2383;48.632;10.156;2023-04-01T07:07:43;6.20;98.30
4739;DHT22;2383;48.632;10.156;2023-04-01T07:11:47;6.20;98.50
4739;DHT22;2383;48.632;10.156;2023-04-01T07:20:38;6.90;98.30
4739;DHT22;2383;48.632;10.156;2023-04-01T07:24:41;6.60;98.40
4739;DHT22;2383;48.632;10.156;2023-04-01T07:28:45;6.50;99.20
4739;DHT22;2383;48.632;10.156;2023-04-01T07:33:15;6.70;98.90
4739;DHT22;2383;48.632;10.156;2023-04-01T08:07:34;7.10;98.40
4739;DHT22;2383;48.632;10.156;2023-04-01T08:26:13;6.50;99.40
4739;DHT22;2383;48.632;10.156;2023-04-01T08:30:41;6.30;99.90
4739;DHT22;2383;48.632;10.156;2023-04-01T08:34:49;7.10;99.90
4739;DHT22;2383;48.632;10.156;2023-04-01T08:39:09;7.10;99.90
4739;DHT22;2383;48.632;10.156;2023-04-01T09:00:32;6.80;99.90
4739;DHT22;2383;48.632;10.156;2023-04-01T09:27:29;6.90;99.90
4739;DHT22;2383;48.632;10.156;2023-04-01T09:32:04;7.20;99.90
4739;DHT22;2383;48.632;10.156;2023-04-01T09:45:24;7.10;99.90
4739;DHT22;2383;48.632;10.156;2023-04-01T09:49:43;6.90;99.90
4739;DHT22;2383;48.632;10.156;2023-04-01T10:53:40;6.10;99.90
4739;DHT22;2383;48.632;10.156;2023-04-01T11:03:06;6.40;99.90
4739;DHT22;2383;48.632;10.156;2023-04-01T11:21:30;7.70;99.90
4739;DHT22;2383;48.632;10.156;2023-04-01T11:39:59;7.90;99.90
4739;DHT22;2383;48.632;10.156;2023-04-01T11:44:46;7.80;99.90
4739;DHT22;2383;48.632;10.156;2023-04-01T11:49:07;7.60;99.90
4739;DHT22;2383;48.632;10.156;2023-04-01T12:10:55;7.90;99.90
4739;DHT22;2383;48.632;10.156;2023-04-01T12:23:55;7.10;99.90
4739;DHT22;2383;48.632;10.156;2023-04-01T13:03:47;7.20;99.90
4739;DHT22;2383;48.632;10.156;2023-04-01T13:08:00;7.00;99.90
4739;DHT22;2383;48.632;10.156;2023-04-01T13:16:33;7.80;99.90
4739;DHT22;2383;48.632;10.156;2023-04-01T13:21:10;7.60;99.90
4739;DHT22;2383;48.632;10.156;2023-04-01T13:42:38;8.10;99.90
4739;DHT22;2383;48.632;10.156;2023-04-01T14:00:35;8.00;99.90
4739;DHT22;2383;48.632;10.156;2023-04-01T14:31:04;8.40;99.90
4739;DHT22;2383;48.632;10.156;2023-04-01T14:40:20;7.90;99.90
4739;DHT22;2383;48.632;10.156;2023-04-01T14:44:10;7.90;99.90
4739;DHT22;2383;48.632;10.156;2023-04-01T14:48:38;8.00;99.50
4739;DHT22;2383;48.632;10.156;2023-04-01T14:52:59;8.00;99.40
4739;DHT22;2383;48.632;10.156;2023-04-01T14:57:15;8.20;99.50
4739;DHT22;2383;48.632;10.156;2023-04-01T15:14:46;8.40;99.00
4739;DHT22;2383;48.632;10.156;2023-04-01T15:32:16;8.20;99.10
4739;DHT22;2383;48.632;10.156;2023-04-01T15:40:42;8.00;98.30
4739;DHT22;2383;48.632;10.156;2023-04-01T16:19:32;8.40;96.70
4739;DHT22;2383;48.632;10.156;2023-04-01T16:37:17;7.60;97.50
4739;DHT22;2383;48.632;10.156;2023-04-01T16:50:39;8.40;98.10
4739;DHT22;2383;48.632;10.156;2023-04-01T16:54:59;8.00;97.40
4739;DHT22;2383;48.632;10.156;2023-04-01T17:34:00;8.50;99.10
4739;DHT22;2383;48.632;10.156;2023-04-01T17:38:13;8.50;99.50
4739;DHT22;2383;48.632;10.156;2023-04-01T17:42:53;8.40;99.40
4739;DHT22;2383;48.632;10.156;2023-04-01T17:51:36;8.30;99.20
4739;DHT22;2383;48.632;10.156;2023-04-01T17:56:20;7.80;99.90
4739;DHT22;2383;48.632;10.156;2023-04-01T18:00:47;7.50;99.90
4739;DHT22;2383;48.632;10.156;2023-04-01T18:14:22;8.20;99.80
4739;DHT22;2383;48.632;10.156;2023-04-01T18:23:28;8.20;99.90
4739;DHT22;2383;48.632;10.156;2023-04-01T18:27:37;8.40;99.80
4739;DHT22;2383;48.632;10.156;2023-04-01T18:31:44;8.60;99.80
4739;DHT22;2383;48.632;10.156;2023-04-01T18:35:52;8.60;99.70
4739;DHT22;2383;48.632;10.156;2023-04-01T18:48:52;8.40;99.90
4739;DHT22;2383;48.632;10.156;2023-04-01T18:53:08;8.40;99.90
4739;DHT22;2383;48.632;10.156;2023-04-01T18:57:13;8.00;99.90
4739;DHT22;2383;48.632;10.156;2023-04-01T19:01:23;7.90;99.90
4739;DHT22;2383;48.632;10.156;2023-04-01T19:05:31;8.00;99.90
4739;DHT22;2383;48.632;10.156;2023-04-01T19:09:47;8.00;99.90
4739;DHT22;2383;48.632;10.156;2023-04-01T19:27:17;8.40;99.90
4739;DHT22;2383;48.632;10.156;2023-04-01T19:40:31;8.60;99.70
4739;DHT22;2383;48.632;10.156;2023-04-01T19:58:09;8.60;99.30
4739;DHT22;2383;48.632;10.156;2023-04-01T20:06:57;7.60;99.90
4739;DHT22;2383;48.632;10.156;2023-04-01T20:11:05;7.40;99.90
4739;DHT22;2383;48.632;10.156;2023-04-01T20:24:37;7.40;99.90
4739;DHT22;2383;48.632;10.156;2023-04-01T20:50:51;7.10;99.90
4739;DHT22;2383;48.632;10.156;2023-04-01T21:17:08;7.80;99.80
4739;DHT22;2383;48.632;10.156;2023-04-01T21:21:39;7.80;99.80
4739;DHT22;2383;48.632;10.156;2023-04-01T21:43:23;7.60;99.30
4739;DHT22;2383;48.632;10.156;2023-04-01T22:08:56;7.30;99.90
4739;DHT22;2383;48.632;10.156;2023-04-01T22:13:31;7.40;99.80
4739;DHT22;2383;48.632;10.156;2023-04-01T22:18:29;7.50;99.90
4739;DHT22;2383;48.632;10.156;2023-04-01T22:22:52;7.30;99.80
4739;DHT22;2383;48.632;10.156;2023-04-01T22:31:08;6.40;99.90
4739;DHT22;2383;48.632;10.156;2023-04-01T22:35:39;6.60;99.90
4739;DHT22;2383;48.632;10.156;2023-04-01T22:43:44;6.80;99.90
4739;DHT22;2383;48.632;10.156;2023-04-01T22:56:21;6.40;99.90
4739;DHT22;2383;48.632;10.156;2023-04-01T23:04:37;6.20;99.90
4739;DHT22;2383;48.632;10.156;2023-04-01T23:13:04;6.00;99.90
4739;DHT22;2383;48.632;10.156;2023-04-01T23:25:31;6.80;99.90
4739;DHT22;2383;48.632;10.156;2023-04-01T23:29:36;6.60;99.90
4739;DHT22;2383;48.632;10.156;2023-04-01T23:33:41;7.10;99.90
4739;DHT22;2383;48.632;10.156;2023-04-01T23:37:43;7.00;99.90
4739;DHT22;2383;48.632;10.156;2023-04-01T23:41:45;6.60;99.90
4739;DHT22;2383;48.632;10.156;2023-04-01T23:45:47;6.50;99.90
4739;DHT22;2383;48.632;10.156;2023-04-01T23:49:56;6.60;99.90
4739;DHT22;2383;48.632;10.156;2023-04-01T23:58:55;6.60;99.90
